createdAt,value
2018-06-29T00:00:55.144Z,78.38
2018-06-29T00:02:04.950Z,78.19
2018-06-29T00:03:15.024Z,78.38
2018-06-29T00:04:25.095Z,78.38
2018-06-29T00:05:34.917Z,78.48
2018-06-29T00:06:44.979Z,78.58
2018-06-29T00:07:55.043Z,78.58
2018-06-29T00:09:04.858Z,78.38
2018-06-29T00:10:14.679Z,78.67
2018-06-29T00:11:24.740Z,78.58
2018-06-29T00:12:34.551Z,78.77
2018-06-29T00:13:44.639Z,78.73
2018-06-29T00:14:54.699Z,78.77
2018-06-29T00:16:04.501Z,78.58
2018-06-29T00:17:14.581Z,78.58
2018-06-29T00:18:24.651Z,78.67
2018-06-29T00:19:34.456Z,78.54
2018-06-29T00:20:44.269Z,78.58
2018-06-29T00:21:54.072Z,78.92
2018-06-29T00:23:04.158Z,78.73
2018-06-29T00:24:14.216Z,78.54
2018-06-29T00:25:24.280Z,78.73
2018-06-29T00:26:34.422Z,78.54
2018-06-29T00:27:44.489Z,78.54
2018-06-29T00:28:54.558Z,78.44
2018-06-29T00:30:04.624Z,78.73
2018-06-29T00:31:14.428Z,78.73
2018-06-29T00:32:24.514Z,78.63
2018-06-29T00:33:34.353Z,79.02
2018-06-29T00:34:44.426Z,78.34
2018-06-29T00:35:54.502Z,78.83
2018-06-29T00:37:04.566Z,78.63
2018-06-29T00:38:14.431Z,78.34
2018-06-29T00:39:24.502Z,78.54
2018-06-29T00:40:34.601Z,78.25
2018-06-29T00:41:44.687Z,78.63
2018-06-29T00:42:54.745Z,78.25
2018-06-29T00:44:04.832Z,78.77
2018-06-29T00:45:14.900Z,78.96
2018-06-29T00:46:24.977Z,79.02
2018-06-29T00:47:34.784Z,79.02
2018-06-29T00:48:44.874Z,79.06
2018-06-29T00:49:54.985Z,78.77
2018-06-29T00:51:05.061Z,78.58
2018-06-29T00:52:14.603Z,78.58
2018-06-29T00:53:24.668Z,78.86
2018-06-29T00:54:34.866Z,78.77
2018-06-29T00:55:45.193Z,78.77
2018-06-29T00:56:55.262Z,79.06
2018-06-29T00:58:05.334Z,79.06
2018-06-29T00:59:15.396Z,78.96
2018-06-29T01:00:25.197Z,78.86
2018-06-29T01:01:35.270Z,78.67
2018-06-29T01:02:45.337Z,78.86
2018-06-29T01:03:55.142Z,78.96
2018-06-29T01:05:04.696Z,79.16
2018-06-29T01:06:14.507Z,78.86
2018-06-29T01:07:24.579Z,78.86
2018-06-29T01:08:34.403Z,78.86
2018-06-29T01:09:43.947Z,78.86
2018-06-29T01:10:53.757Z,78.86
2018-06-29T01:12:03.574Z,78.96
2018-06-29T01:13:13.655Z,78.86
2018-06-29T01:14:23.744Z,78.96
2018-06-29T01:15:33.822Z,79.06
2018-06-29T01:16:43.989Z,78.77
2018-06-29T01:17:53.788Z,78.96
2018-06-29T01:19:03.859Z,78.86
2018-06-29T01:20:13.656Z,79.06
2018-06-29T01:21:23.724Z,78.86
2018-06-29T01:22:33.559Z,78.86
2018-06-29T01:23:43.360Z,78.77
2018-06-29T01:24:53.441Z,79.06
2018-06-29T01:26:03.254Z,79.16
2018-06-29T01:27:13.086Z,78.92
2018-06-29T01:28:22.898Z,79.11
2018-06-29T01:29:32.978Z,78.67
2018-06-29T01:30:43.056Z,79.02
2018-06-29T01:31:53.130Z,78.73
2018-06-29T01:33:03.210Z,78.73
2018-06-29T01:34:13.301Z,78.96
2018-06-29T01:35:23.383Z,78.83
2018-06-29T01:36:33.478Z,78.73
2018-06-29T01:37:43.282Z,79.02
2018-06-29T01:38:53.092Z,78.92
2018-06-29T01:40:03.186Z,79.02
2018-06-29T01:41:13.266Z,78.86
2018-06-29T01:42:23.433Z,78.77
2018-06-29T01:43:33.519Z,78.73
2018-06-29T01:44:43.561Z,78.67
2018-06-29T01:45:53.637Z,78.73
2018-06-29T01:47:03.463Z,78.83
2018-06-29T01:48:13.587Z,79.11
2018-06-29T01:49:23.390Z,78.73
2018-06-29T01:50:33.446Z,78.77
2018-06-29T01:51:43.517Z,78.67
2018-06-29T01:52:53.609Z,79.06
2018-06-29T01:54:03.821Z,79.11
2018-06-29T01:55:13.919Z,79.16
2018-06-29T01:56:24.009Z,78.86
2018-06-29T01:57:34.080Z,79.02
2018-06-29T01:58:43.907Z,78.86
2018-06-29T01:59:54.034Z,78.86
2018-06-29T02:01:04.110Z,78.77
2018-06-29T02:02:14.187Z,78.86
2018-06-29T02:03:24.010Z,78.96
2018-06-29T02:04:35.441Z,78.67
2018-06-29T02:05:45.854Z,78.67
2018-06-29T02:06:55.926Z,78.86
2018-06-29T02:08:06.113Z,78.77
2018-06-29T02:09:16.018Z,78.77
2018-06-29T02:10:25.839Z,78.67
2018-06-29T02:11:35.648Z,78.96
2018-06-29T02:12:45.728Z,78.96
2018-06-29T02:13:55.539Z,78.77
2018-06-29T02:15:05.612Z,78.96
2018-06-29T02:16:15.430Z,78.77
2018-06-29T02:17:25.030Z,78.96
2018-06-29T02:18:34.860Z,78.58
2018-06-29T02:19:44.937Z,78.58
2018-06-29T02:20:55.013Z,78.77
2018-06-29T02:22:05.075Z,78.58
2018-06-29T02:23:15.152Z,78.77
2018-06-29T02:24:25.225Z,78.77
2018-06-29T02:25:35.283Z,78.77
2018-06-29T02:26:45.366Z,78.67
2018-06-29T02:27:55.436Z,78.58
2018-06-29T02:29:05.513Z,78.58
2018-06-29T02:30:15.664Z,78.77
2018-06-29T02:31:25.565Z,78.48
2018-06-29T02:32:35.683Z,78.48
2018-06-29T02:33:45.776Z,78.48
2018-06-29T02:34:55.878Z,79.54
2018-06-29T02:36:05.959Z,79.44
2018-06-29T02:37:15.760Z,78.48
2018-06-29T02:38:25.566Z,78.58
2018-06-29T02:39:35.633Z,78.52
2018-06-29T02:40:45.727Z,78.58
2018-06-29T02:41:55.807Z,78.81
2018-06-29T02:43:05.903Z,78.86
2018-06-29T02:44:16.025Z,78.58
2018-06-29T02:45:26.097Z,78.58
2018-06-29T02:46:36.196Z,78.58
2018-06-29T02:47:46.287Z,78.61
2018-06-29T02:48:56.368Z,78.61
2018-06-29T02:50:06.468Z,78.71
2018-06-29T02:51:16.548Z,79.19
2018-06-29T02:52:26.368Z,78.61
2018-06-29T02:53:36.433Z,78.81
2018-06-29T02:54:46.234Z,78.61
2018-06-29T02:55:56.326Z,78.52
2018-06-29T02:57:06.133Z,78.52
2018-06-29T02:58:16.229Z,78.33
2018-06-29T02:59:26.337Z,79.49
2018-06-29T03:00:36.438Z,79.49
2018-06-29T03:01:46.521Z,79.39
2018-06-29T03:02:56.605Z,78.61
2018-06-29T03:34:43.265Z,72.85
2018-06-29T03:35:53.318Z,73.05
2018-06-29T03:37:03.373Z,73.14
2018-06-29T03:38:12.950Z,73.72
2018-06-29T03:39:22.768Z,73.91
2018-06-29T03:40:32.665Z,74.49
2018-06-29T03:41:43.408Z,74.91
2018-06-29T03:42:53.206Z,75.78
2018-06-29T03:44:03.334Z,75.97
2018-06-29T03:45:13.420Z,76.45
2018-06-29T03:46:23.473Z,76.75
2018-06-29T03:47:33.542Z,77.23
2018-06-29T03:48:43.612Z,77.71
2018-06-29T03:49:53.482Z,77.9
2018-06-29T03:51:03.546Z,78.42
2018-06-29T03:52:13.367Z,78.13
2018-06-29T03:53:23.451Z,78.42
2018-06-29T03:54:33.519Z,78.23
2018-06-29T03:55:43.331Z,78.08
2018-06-29T03:56:53.147Z,77.98
2018-06-29T03:58:03.224Z,77.98
2018-06-29T03:59:12.768Z,77.98
2018-06-29T04:00:22.850Z,77.69
2018-06-29T04:01:32.652Z,77.63
2018-06-29T04:02:42.724Z,77.44
2018-06-29T04:03:52.844Z,77.83
2018-06-29T04:05:02.917Z,77.34
2018-06-29T04:06:13.004Z,77.57
2018-06-29T04:07:22.561Z,77.57
2018-06-29T04:08:32.640Z,77.38
2018-06-29T04:09:42.458Z,77.76
2018-06-29T04:10:52.013Z,77.09
2018-06-29T04:12:02.101Z,77.48
2018-06-29T04:13:11.912Z,77.57
2018-06-29T04:14:21.988Z,77.57
2018-06-29T04:15:31.805Z,77.38
2018-06-29T04:16:41.877Z,77.19
2018-06-29T04:17:51.957Z,77.42
2018-06-29T04:19:01.759Z,77.03
2018-06-29T04:20:11.835Z,76.84
2018-06-29T04:21:21.643Z,77.03
2018-06-29T04:22:31.718Z,76.39
2018-06-29T04:23:41.585Z,75.85
2018-06-29T04:24:51.653Z,75.17
2018-06-29T04:26:01.733Z,75.02
2018-06-29T04:27:11.813Z,74.57
2018-06-29T04:28:21.884Z,74.41
2018-06-29T04:29:31.966Z,74.41
2018-06-29T04:30:42.035Z,74.64
2018-06-29T04:31:52.124Z,74.45
2018-06-29T04:33:01.945Z,74.58
2018-06-29T04:34:12.022Z,74.19
2018-06-29T04:35:21.820Z,74
2018-06-29T04:36:31.627Z,74.58
2018-06-29T04:37:41.450Z,74.58
2018-06-29T04:38:51.274Z,74.43
2018-06-29T04:40:01.076Z,74.13
2018-06-29T04:41:10.893Z,74.13
2018-06-29T04:42:20.954Z,74.07
2018-06-29T04:43:30.749Z,74.17
2018-06-29T04:44:40.839Z,74.27
2018-06-29T04:45:50.653Z,74.46
2018-06-29T04:47:00.193Z,74.4
2018-06-29T04:48:10.281Z,73.91
2018-06-29T04:49:20.470Z,74.15
2018-06-29T04:50:30.800Z,73.85
2018-06-29T04:51:40.882Z,73.95
2018-06-29T04:52:50.969Z,73.66
2018-06-29T04:54:01.047Z,73.85
2018-06-29T04:55:11.177Z,74.63
2018-06-29T04:56:21.299Z,74.21
2018-06-29T04:57:31.112Z,75.53
2018-06-29T04:58:41.180Z,76.27
2018-06-29T04:59:50.734Z,75.84
2018-06-29T05:01:00.913Z,76.52
2018-06-29T05:02:11.212Z,76.29
2018-06-29T05:03:21.288Z,76.58
2018-06-29T05:04:31.099Z,76.29
2018-06-29T05:05:41.170Z,76.58
2018-06-29T05:06:51.241Z,76.78
2018-06-29T05:08:01.066Z,76.74
2018-06-29T05:09:11.138Z,77.12
2018-06-29T05:10:21.202Z,76.99
2018-06-29T05:11:31.617Z,77.22
2018-06-29T05:12:41.712Z,77.42
2018-06-29T05:13:51.799Z,76.89
2018-06-29T05:15:01.895Z,77.19
2018-06-29T05:16:11.694Z,77.86
2018-06-29T05:17:21.771Z,77.82
2018-06-29T05:18:31.345Z,77.73
2018-06-29T05:19:41.504Z,77.82
2018-06-29T05:20:51.587Z,78.17
2018-06-29T05:22:01.673Z,78.08
2018-06-29T05:23:11.479Z,77.88
2018-06-29T05:24:21.301Z,78.08
2018-06-29T05:25:31.373Z,77.98
2018-06-29T05:26:41.456Z,77.98
2018-06-29T05:27:51.275Z,77.98
2018-06-29T05:29:01.361Z,77.84
2018-06-29T05:30:11.454Z,77.84
2018-06-29T05:31:21.327Z,77.84
2018-06-29T05:32:31.426Z,77.94
2018-06-29T05:33:41.241Z,77.94
2018-06-29T05:34:51.306Z,78.23
2018-06-29T05:36:01.247Z,78.42
2018-06-29T05:37:11.347Z,78.23
2018-06-29T05:38:21.173Z,78.33
2018-06-29T05:39:31.252Z,78.03
2018-06-29T05:40:41.341Z,78.13
2018-06-29T05:41:51.483Z,78.19
2018-06-29T05:43:01.580Z,78
2018-06-29T05:44:11.659Z,78.29
2018-06-29T05:45:21.749Z,78.38
2018-06-29T05:46:31.843Z,77.84
2018-06-29T05:47:41.927Z,77.75
2018-06-29T05:48:52.072Z,77.65
2018-06-29T05:50:02.158Z,77.45
2018-06-29T05:51:12.240Z,77.75
2018-06-29T05:52:22.321Z,77.5
2018-06-29T05:53:32.435Z,76.91
2018-06-29T05:54:42.570Z,77.11
2018-06-29T05:55:52.404Z,76.18
2018-06-29T05:57:02.494Z,76.46
2018-06-29T05:58:12.585Z,75.83
2018-06-29T05:59:22.386Z,74.7
2018-06-29T06:00:32.208Z,74.35
2018-06-29T06:01:42.286Z,73.22
2018-06-29T06:02:52.376Z,71.33
2018-06-29T06:04:02.197Z,72.33
2018-06-29T06:05:12.270Z,73.3
2018-06-29T06:06:22.074Z,73.46
2018-06-29T06:07:31.895Z,73.95
2018-06-29T06:08:41.741Z,73.18
2018-06-29T06:09:51.834Z,72.43
2018-06-29T06:11:01.927Z,71.62
2018-06-29T06:12:12.034Z,71.66
2018-06-29T06:13:22.193Z,72.34
2018-06-29T06:14:31.848Z,71.17
2018-06-29T06:15:41.688Z,71.18
2018-06-29T06:16:51.793Z,70.7
2018-06-29T06:18:01.880Z,71.31
2018-06-29T06:19:11.958Z,71.61
2018-06-29T06:20:22.035Z,71.47
2018-06-29T06:21:32.126Z,71.7
2018-06-29T06:22:42.200Z,72
2018-06-29T06:23:52.283Z,71.74
2018-06-29T06:25:02.356Z,72.62
2018-06-29T06:26:12.567Z,72.88
2018-06-29T06:27:22.125Z,72.74
2018-06-29T06:28:32.202Z,73.03
2018-06-29T06:29:42.004Z,72.74
2018-06-29T06:30:52.072Z,72.58
2018-06-29T06:32:02.145Z,71.86
2018-06-29T06:33:12.335Z,71.74
2018-06-29T06:34:22.601Z,72.88
2018-06-29T06:35:32.421Z,72.39
2018-06-29T06:36:42.542Z,73.23
2018-06-29T06:37:52.617Z,73.82
2018-06-29T06:39:02.435Z,73.62
2018-06-29T06:40:12.517Z,74.27
2018-06-29T06:41:22.615Z,74.07
2018-06-29T06:42:32.478Z,74.82
2018-06-29T06:43:42.549Z,74.04
2018-06-29T06:44:52.682Z,73.68
2018-06-29T06:46:02.760Z,73.19
2018-06-29T06:47:12.839Z,72.39
2018-06-29T06:48:22.920Z,71.84
2018-06-29T06:49:32.991Z,71.58
2018-06-29T06:50:43.069Z,71.97
2018-06-29T06:51:53.137Z,71.58
2018-06-29T06:53:02.948Z,71.58
2018-06-29T06:54:13.040Z,71.97
2018-06-29T06:55:23.112Z,72.39
2018-06-29T06:56:32.932Z,73.6
2018-06-29T06:57:42.748Z,73.85
2018-06-29T06:58:52.853Z,74.4
2018-06-29T07:00:02.417Z,74.85
2018-06-29T07:01:12.521Z,74.62
2018-06-29T07:02:22.591Z,74.91
2018-06-29T07:03:32.675Z,74.52
2018-06-29T07:04:42.753Z,75.1
2018-06-29T07:05:52.892Z,75.26
2018-06-29T07:07:02.445Z,75.16
2018-06-29T07:08:12.547Z,74.87
2018-06-29T07:09:22.642Z,74.68
2018-06-29T07:10:32.518Z,74.78
2018-06-29T07:11:42.642Z,74.87
2018-06-29T07:12:52.868Z,74.87
2018-06-29T07:14:02.429Z,74.49
2018-06-29T07:15:12.533Z,74.58
2018-06-29T07:16:22.634Z,73.74
2018-06-29T07:17:32.705Z,73.68
2018-06-29T07:18:42.537Z,73.52
2018-06-29T07:19:52.621Z,73.62
2018-06-29T07:21:02.690Z,74.11
2018-06-29T07:22:12.778Z,73.82
2018-06-29T07:23:22.849Z,73.97
2018-06-29T07:24:33.133Z,73.68
2018-06-29T07:25:42.981Z,73.72
2018-06-29T07:26:53.054Z,73.91
2018-06-29T07:28:03.136Z,74.05
2018-06-29T07:29:14.211Z,73.72
2018-06-29T07:30:24.300Z,73.66
2018-06-29T07:31:34.402Z,73.66
2018-06-29T07:32:44.494Z,73.4
2018-06-29T07:33:54.565Z,73.69
2018-06-29T07:35:04.670Z,73.79
2018-06-29T07:36:14.517Z,73.54
2018-06-29T07:37:24.631Z,73.27
2018-06-29T07:38:34.797Z,73.24
2018-06-29T07:39:44.781Z,73.83
2018-06-29T07:40:54.893Z,73.83
2018-06-29T07:42:04.997Z,73.14
2018-06-29T07:43:14.819Z,73.37
2018-06-29T07:44:24.909Z,73.37
2018-06-29T07:45:35.006Z,73.27
2018-06-29T07:46:45.353Z,73.47
2018-06-29T07:47:55.603Z,73.47
2018-06-29T07:49:05.416Z,73.76
2018-06-29T07:50:15.245Z,73.86
2018-06-29T07:51:25.354Z,73.93
2018-06-29T07:52:35.426Z,74.41
2018-06-29T07:53:45.516Z,74.71
2018-06-29T07:54:55.602Z,74.41
2018-06-29T07:56:05.704Z,74.87
2018-06-29T07:57:15.995Z,75.41
2018-06-29T07:58:26.616Z,75.31
2018-06-29T07:59:37.448Z,75.27
2018-06-29T08:00:47.593Z,75.57
2018-06-29T08:01:57.695Z,75.53
2018-06-29T08:03:07.829Z,75.82
2018-06-29T08:04:17.929Z,75.73
2018-06-29T08:05:28.023Z,75.43
2018-06-29T08:06:38.150Z,75.14
2018-06-29T08:07:48.258Z,74.5
2018-06-29T08:08:58.367Z,73.69
2018-06-29T08:10:08.466Z,73.24
2018-06-29T08:11:18.577Z,73.05
2018-06-29T08:12:28.675Z,72.85
2018-06-29T08:13:38.831Z,72.92
2018-06-29T08:14:48.914Z,73.11
2018-06-29T08:15:58.486Z,73.86
2018-06-29T08:17:08.603Z,74.41
2018-06-29T08:18:18.713Z,74.32
2018-06-29T08:19:28.814Z,74.67
2018-06-29T08:20:38.918Z,75.41
2018-06-29T08:21:49.079Z,75.57
2018-06-29T08:22:58.929Z,76.41
2018-06-29T08:24:09.020Z,76.47
2018-06-29T08:25:19.223Z,76.37
2018-06-29T08:26:29.050Z,76.28
2018-06-29T08:27:39.204Z,76.37
2018-06-29T08:28:49.323Z,76.47
2018-06-29T08:29:59.130Z,76.43
2018-06-29T08:31:08.948Z,76.63
2018-06-29T08:32:18.518Z,75.46
2018-06-29T08:33:28.346Z,75.71
2018-06-29T08:34:38.447Z,75.65
2018-06-29T08:35:48.540Z,74.97
2018-06-29T08:36:58.636Z,74.04
2018-06-29T08:38:08.736Z,73.97
2018-06-29T08:39:18.585Z,74.4
2018-06-29T08:40:28.732Z,74.11
2018-06-29T08:41:38.843Z,74.17
2018-06-29T08:42:48.927Z,74.46
2018-06-29T08:43:59.096Z,75.2
2018-06-29T08:45:09.246Z,75.75
2018-06-29T08:46:19.348Z,75.65
2018-06-29T08:47:29.462Z,75.46
2018-06-29T08:48:39.549Z,75.52
2018-06-29T08:49:49.652Z,75.52
2018-06-29T08:50:59.476Z,75.42
2018-06-29T08:52:09.754Z,75.62
2018-06-29T08:53:20.311Z,75.42
2018-06-29T08:54:30.133Z,75.62
2018-06-29T08:55:40.212Z,75.71
2018-06-29T08:56:50.360Z,75.62
2018-06-29T08:58:00.183Z,75.42
2018-06-29T08:59:10.285Z,75.62
2018-06-29T09:00:20.400Z,75.71
2018-06-29T09:01:30.495Z,75.23
2018-06-29T09:02:40.589Z,75.23
2018-06-29T09:03:50.702Z,75.62
2018-06-29T09:05:00.842Z,75.71
2018-06-29T09:06:11.161Z,75.62
2018-06-29T09:07:21.292Z,75.68
2018-06-29T09:08:31.128Z,76.26
2018-06-29T09:09:41.206Z,76.22
2018-06-29T09:10:51.303Z,76.22
2018-06-29T09:12:01.538Z,76.28
2018-06-29T09:13:11.370Z,76.67
2018-06-29T09:14:21.471Z,76.28
2018-06-29T09:15:31.041Z,76.18
2018-06-29T09:16:40.921Z,76.09
2018-06-29T09:17:51.017Z,76.18
2018-06-29T09:19:01.230Z,76.28
2018-06-29T09:20:11.629Z,76.09
2018-06-29T09:21:21.725Z,75.21
2018-06-29T09:22:31.839Z,75.54
2018-06-29T09:23:41.658Z,75.45
2018-06-29T09:24:51.496Z,75.64
2018-06-29T09:26:01.330Z,75.15
2018-06-29T09:27:11.241Z,74.86
2018-06-29T09:28:21.350Z,74.9
2018-06-29T09:29:31.431Z,74.99
2018-06-29T09:30:41.540Z,75.19
2018-06-29T09:31:51.637Z,75.64
2018-06-29T09:33:01.717Z,75.54
2018-06-29T09:34:11.810Z,75.25
2018-06-29T09:35:21.651Z,75.64
2018-06-29T09:36:31.806Z,75.15
2018-06-29T09:37:41.638Z,75.54
2018-06-29T09:38:51.481Z,75.35
2018-06-29T09:40:01.572Z,75.19
2018-06-29T09:41:26.869Z,75.29
2018-06-29T09:42:57.678Z,75.48
2018-06-29T09:44:07.828Z,75.09
2018-06-29T09:45:17.993Z,75.58
2018-06-29T09:46:28.089Z,75.38
2018-06-29T09:47:38.193Z,75.74
2018-06-29T09:48:48.402Z,75.45
2018-06-29T09:49:58.236Z,75.84
2018-06-29T09:51:08.065Z,75.35
2018-06-29T09:52:18.168Z,75.05
2018-06-29T09:53:28.338Z,74.71
2018-06-29T09:54:38.420Z,74.45
2018-06-29T09:55:48.495Z,73.8
2018-06-29T09:56:58.340Z,73.61
2018-06-29T09:58:07.906Z,72.71
2018-06-29T09:59:17.464Z,72.45
2018-06-29T10:00:27.396Z,71.55
2018-06-29T10:01:37.729Z,71.58
2018-06-29T10:02:48.193Z,71.32
2018-06-29T10:03:58.026Z,71.61
2018-06-29T10:05:07.864Z,70.93
2018-06-29T10:06:17.956Z,71.12
2018-06-29T10:07:28.200Z,71.36
2018-06-29T10:08:38.309Z,71.65
2018-06-29T10:09:48.381Z,71.65
2018-06-29T10:10:58.553Z,71.98
2018-06-29T10:12:08.824Z,71.75
2018-06-29T10:13:18.652Z,72.24
2018-06-29T10:14:28.907Z,72.53
2018-06-29T10:15:39.170Z,71.98
2018-06-29T10:16:49.284Z,71.88
2018-06-29T10:17:59.744Z,71.78
2018-06-29T10:19:10.480Z,71.91
2018-06-29T10:20:22.879Z,72.31
2018-06-29T10:21:35.046Z,71.91
2018-06-29T10:22:48.247Z,71.66
2018-06-29T10:23:59.874Z,71.66
2018-06-29T10:25:11.060Z,71.75
2018-06-29T10:26:22.074Z,71.56
2018-06-29T10:27:33.067Z,72.34
2018-06-29T10:28:43.887Z,72.63
2018-06-29T10:29:54.524Z,73.09
2018-06-29T10:31:04.747Z,73.44
2018-06-29T10:32:14.842Z,73.5
2018-06-29T10:33:24.959Z,74.19
2018-06-29T10:34:34.779Z,74.15
2018-06-29T10:35:44.886Z,74.8
2018-06-29T10:36:55.089Z,74.12
2018-06-29T10:38:05.191Z,75.05
2018-06-29T10:39:15.293Z,74.96
2018-06-29T10:40:25.403Z,74.63
2018-06-29T10:41:35.620Z,74.93
2018-06-29T10:42:45.465Z,74.83
2018-06-29T10:43:55.559Z,74.73
2018-06-29T10:45:05.867Z,74.11
2018-06-29T10:46:16.025Z,74.44
2018-06-29T10:47:26.135Z,74.73
2018-06-29T10:48:35.719Z,74.24
2018-06-29T10:49:45.827Z,73.95
2018-06-29T10:50:55.924Z,74.08
2018-06-29T10:52:05.997Z,73.99
2018-06-29T10:53:15.845Z,74.08
2018-06-29T10:54:25.946Z,73.79
2018-06-29T10:55:36.041Z,73.5
2018-06-29T10:56:46.126Z,73.14
2018-06-29T10:57:56.219Z,73.05
2018-06-29T10:59:06.062Z,72.95
2018-06-29T11:00:15.905Z,72.88
2018-06-29T11:01:26.011Z,72.39
2018-06-29T11:02:35.584Z,73.08
2018-06-29T11:03:45.697Z,73.27
2018-06-29T11:04:55.812Z,73.37
2018-06-29T11:06:05.899Z,72.98
2018-06-29T11:07:16.023Z,72.92
2018-06-29T11:08:26.108Z,72.96
2018-06-29T11:09:36.258Z,72.96
2018-06-29T11:10:46.382Z,72.86
2018-06-29T11:11:56.608Z,72.96
2018-06-29T11:13:06.710Z,71.72
2018-06-29T11:14:16.813Z,71.91
2018-06-29T11:15:26.878Z,71.91
2018-06-29T11:16:36.971Z,71.26
2018-06-29T11:17:47.040Z,70.9
2018-06-29T11:18:56.858Z,70.29
2018-06-29T11:20:06.939Z,69.87
2018-06-29T11:21:17.017Z,70
2018-06-29T11:22:27.105Z,70.39
2018-06-29T11:23:37.274Z,71.44
2018-06-29T11:24:47.368Z,72.28
2018-06-29T11:25:57.470Z,73.03
2018-06-29T11:27:07.565Z,74.14
2018-06-29T11:28:17.648Z,74.01
2018-06-29T11:29:27.747Z,74.49
2018-06-29T11:30:37.834Z,74.75
2018-06-29T11:31:47.919Z,75.04
2018-06-29T11:32:58.025Z,74.85
2018-06-29T11:34:08.115Z,74.52
2018-06-29T11:35:17.918Z,74.22
2018-06-29T11:36:28.000Z,74.22
2018-06-29T11:37:38.097Z,74.77
2018-06-29T11:38:47.962Z,75.17
2018-06-29T11:39:57.524Z,75.07
2018-06-29T11:41:07.613Z,74.97
2018-06-29T11:42:17.698Z,74.87
2018-06-29T11:43:27.859Z,75.07
2018-06-29T11:44:37.960Z,74.87
2018-06-29T11:45:47.806Z,74.64
2018-06-29T11:46:57.876Z,74.84
2018-06-29T11:48:07.959Z,75.33
2018-06-29T11:49:18.030Z,75.43
2018-06-29T11:50:27.907Z,75.52
2018-06-29T11:51:37.984Z,74.93
2018-06-29T11:52:48.122Z,75.04
2018-06-29T11:53:58.201Z,74.97
2018-06-29T11:55:08.295Z,74.87
2018-06-29T11:56:19.259Z,74.29
2018-06-29T11:57:29.067Z,74.19
2018-06-29T11:58:38.911Z,74.68
2018-06-29T11:59:48.504Z,74.71
2018-06-29T12:00:58.582Z,74.71
2018-06-29T12:02:08.662Z,74.32
2018-06-29T12:03:18.779Z,74.32
2018-06-29T12:04:28.606Z,74.71
2018-06-29T12:05:38.411Z,74.22
2018-06-29T12:06:48.238Z,74.36
2018-06-29T12:07:58.675Z,74.95
2018-06-29T12:09:08.770Z,74.85
2018-06-29T12:10:18.353Z,74.65
2018-06-29T12:11:28.426Z,75.04
2018-06-29T12:12:38.509Z,74.75
2018-06-29T12:13:48.584Z,74.85
2018-06-29T12:14:58.882Z,74.36
2018-06-29T12:16:09.062Z,74.52
2018-06-29T12:17:19.130Z,74.65
2018-06-29T12:18:29.216Z,75.46
2018-06-29T12:19:39.035Z,76.05
2018-06-29T12:20:49.351Z,76.05
2018-06-29T12:21:59.608Z,76.6
2018-06-29T12:23:09.178Z,76.37
2018-06-29T12:24:19.301Z,77.3
2018-06-29T12:25:29.268Z,77.4
2018-06-29T12:26:39.770Z,77.85
2018-06-29T12:27:49.855Z,77.52
2018-06-29T12:28:59.732Z,78.11
2018-06-29T12:30:09.804Z,78.06
2018-06-29T12:31:19.611Z,78.45
2018-06-29T12:32:29.693Z,78.65
2018-06-29T12:33:39.765Z,78.42
2018-06-29T12:34:49.844Z,78.71
2018-06-29T12:35:59.926Z,78.96
2018-06-29T12:37:09.489Z,78.87
2018-06-29T12:38:19.322Z,78.83
2018-06-29T12:39:29.407Z,78.73
2018-06-29T12:40:39.478Z,78.34
2018-06-29T12:41:49.563Z,78.34
2018-06-29T12:42:59.651Z,78.3
2018-06-29T12:44:09.515Z,78.44
2018-06-29T12:45:19.596Z,78.59
2018-06-29T12:46:29.703Z,78.59
2018-06-29T12:47:39.516Z,78.59
2018-06-29T12:48:49.373Z,78.2
2018-06-29T12:49:59.181Z,78.2
2018-06-29T12:51:09.297Z,78.5
2018-06-29T12:52:19.115Z,78.3
2018-06-29T12:53:29.189Z,78.07
2018-06-29T12:54:38.995Z,78.4
2018-06-29T12:55:49.159Z,78.4
2018-06-29T12:56:59.679Z,78.4
2018-06-29T12:58:09.497Z,78.3
2018-06-29T12:59:19.557Z,78.27
2018-06-29T13:00:29.158Z,78.07
2018-06-29T13:01:39.273Z,77.97
2018-06-29T13:02:49.362Z,77.62
2018-06-29T13:03:59.449Z,77.33
2018-06-29T13:05:09.534Z,76.5
2018-06-29T13:06:19.791Z,76.53
2018-06-29T13:07:29.868Z,76.43
2018-06-29T13:08:39.948Z,76.34
2018-06-29T13:09:50.046Z,76.57
2018-06-29T13:11:00.132Z,76.43
2018-06-29T13:12:10.235Z,77.06
2018-06-29T13:13:20.054Z,77.21
2018-06-29T13:14:30.264Z,76.73
2018-06-29T13:15:40.075Z,77.21
2018-06-29T13:16:49.921Z,77.5
2018-06-29T13:17:59.764Z,76.73
2018-06-29T13:19:09.842Z,77.01
2018-06-29T13:20:19.941Z,76.82
2018-06-29T13:21:30.001Z,76.86
2018-06-29T13:22:39.816Z,76.82
2018-06-29T13:23:49.951Z,76.76
2018-06-29T13:25:00.265Z,76.73
2018-06-29T13:26:10.818Z,76.57
2018-06-29T13:27:20.903Z,76.47
2018-06-29T13:28:30.886Z,75.53
2018-06-29T13:29:41.013Z,75.53
2018-06-29T13:30:50.679Z,75.82
2018-06-29T13:32:00.598Z,76.8
2018-06-29T13:33:10.715Z,76.31
2018-06-29T13:34:20.849Z,75.92
2018-06-29T13:35:30.925Z,76.51
2018-06-29T13:36:40.997Z,76.61
2018-06-29T13:37:50.843Z,76.51
2018-06-29T13:39:00.666Z,76.61
2018-06-29T13:40:10.767Z,76.41
2018-06-29T13:41:20.844Z,76.8
2018-06-29T13:42:30.952Z,75.92
2018-06-29T13:43:41.056Z,75.47
2018-06-29T13:44:50.943Z,75.67
2018-06-29T13:46:01.048Z,75.47
2018-06-29T13:47:11.182Z,75.57
2018-06-29T13:48:21.266Z,75.86
2018-06-29T13:49:30.816Z,75.96
2018-06-29T13:50:40.927Z,75.76
2018-06-29T13:51:51.025Z,75.67
2018-06-29T13:53:01.112Z,75.86
2018-06-29T13:54:10.925Z,75.99
2018-06-29T13:55:20.529Z,75.6
2018-06-29T13:56:30.623Z,75.7
2018-06-29T13:57:40.723Z,75.31
2018-06-29T13:58:50.539Z,75.15
2018-06-29T14:00:00.631Z,75.15
2018-06-29T14:01:10.709Z,75.45
2018-06-29T14:02:20.776Z,75.93
2018-06-29T14:03:30.956Z,75.64
2018-06-29T14:04:41.087Z,75.93
2018-06-29T14:05:50.914Z,75.35
2018-06-29T14:07:01.018Z,75.35
2018-06-29T14:08:11.172Z,75.35
2018-06-29T14:09:21.434Z,74.8
2018-06-29T14:10:31.609Z,74.61
2018-06-29T14:11:41.703Z,73.96
2018-06-29T14:12:51.856Z,73.99
2018-06-29T14:14:01.955Z,73.74
2018-06-29T14:15:12.073Z,74.22
2018-06-29T14:16:22.254Z,73.74
2018-06-29T14:17:32.358Z,73.77
2018-06-29T14:18:42.259Z,73.97
2018-06-29T14:19:52.804Z,74.03
2018-06-29T14:21:03.092Z,74.16
2018-06-29T14:22:12.888Z,73.77
2018-06-29T14:23:22.769Z,73.71
2018-06-29T14:24:32.854Z,73.97
2018-06-29T14:25:43.876Z,74.01
2018-06-29T14:26:53.959Z,73.71
2018-06-29T14:28:04.061Z,74.3
2018-06-29T14:29:14.177Z,74.49
2018-06-29T14:30:24.286Z,74.95
2018-06-29T14:31:34.404Z,74.95
2018-06-29T14:32:44.500Z,75.31
2018-06-29T14:33:54.585Z,75.66
2018-06-29T14:35:04.672Z,76.15
2018-06-29T14:36:14.743Z,75.92
2018-06-29T14:37:24.822Z,76.79
2018-06-29T14:38:34.929Z,76.37
2018-06-29T14:39:44.760Z,77.01
2018-06-29T14:40:54.358Z,77.11
2018-06-29T14:42:04.670Z,76.81
2018-06-29T14:43:14.505Z,76.97
2018-06-29T14:44:24.608Z,76.78
2018-06-29T14:45:34.154Z,77.17
2018-06-29T14:46:44.268Z,77.36
2018-06-29T14:47:54.096Z,77.72
2018-06-29T14:49:04.189Z,77.58
2018-06-29T14:50:14.285Z,77.68
2018-06-29T14:51:24.679Z,77.58
2018-06-29T14:52:34.517Z,77.68
2018-06-29T14:53:44.626Z,77.39
2018-06-29T14:54:54.447Z,77.09
2018-06-29T14:56:04.535Z,77.39
2018-06-29T14:57:15.704Z,77.09
2018-06-29T14:58:25.542Z,77.68
2018-06-29T14:59:35.637Z,77.54
2018-06-29T15:00:45.777Z,77.64
2018-06-29T15:01:55.878Z,77.8
2018-06-29T15:03:05.750Z,78.19
2018-06-29T15:04:15.595Z,78.19
2018-06-29T15:05:25.980Z,77.99
2018-06-29T15:06:35.849Z,77.99
2018-06-29T15:07:45.956Z,77.99
2018-06-29T15:08:56.081Z,77.4
2018-06-29T15:10:06.174Z,77.5
2018-06-29T15:11:16.018Z,77.25
2018-06-29T15:12:26.149Z,76.86
2018-06-29T15:13:36.416Z,76.41
2018-06-29T15:14:46.283Z,76.51
2018-06-29T15:15:56.264Z,76.15
2018-06-29T15:17:06.412Z,76.54
2018-06-29T15:18:16.510Z,75.47
2018-06-29T15:19:26.621Z,75.6
2018-06-29T15:20:36.723Z,75.41
2018-06-29T15:21:46.974Z,75.7
2018-06-29T15:22:57.234Z,75.6
2018-06-29T15:24:07.362Z,75.74
2018-06-29T15:25:17.283Z,74.61
2018-06-29T15:26:27.691Z,74.35
2018-06-29T15:27:37.797Z,74.74
2018-06-29T15:28:48.180Z,74.52
2018-06-29T15:29:58.370Z,74.03
2018-06-29T15:31:08.322Z,74.16
2018-06-29T15:32:18.734Z,73.87
2018-06-29T15:33:28.566Z,74.46
2018-06-29T15:34:38.732Z,74.75
2018-06-29T15:35:49.994Z,74.26